sensor_id;sensor_type;location;lat;lon;timestamp;temperature;humidity
7708;DHT22;3896;48.758;8.888;2022-07-29T00:00:02;21.70;84.60
7708;DHT22;3896;48.758;8.888;2022-07-29T00:02:28;21.70;85.10
7708;DHT22;3896;48.758;8.888;2022-07-29T00:04:53;21.70;85.60
7708;DHT22;3896;48.758;8.888;2022-07-29T00:07:19;21.70;86.30
7708;DHT22;3896;48.758;8.888;2022-07-29T00:09:45;21.60;86.50
7708;DHT22;3896;48.758;8.888;2022-07-29T00:12:10;21.60;86.70
7708;DHT22;3896;48.758;8.888;2022-07-29T00:14:36;21.50;87.20
7708;DHT22;3896;48.758;8.888;2022-07-29T00:17:02;21.50;87.90
7708;DHT22;3896;48.758;8.888;2022-07-29T00:19:27;21.40;88.70
7708;DHT22;3896;48.758;8.888;2022-07-29T00:21:53;21.40;89.60
7708;DHT22;3896;48.758;8.888;2022-07-29T00:24:18;21.40;90.10
7708;DHT22;3896;48.758;8.888;2022-07-29T00:26:44;21.30;90.30
7708;DHT22;3896;48.758;8.888;2022-07-29T00:29:09;21.30;90.40
7708;DHT22;3896;48.758;8.888;2022-07-29T00:31:35;21.30;90.60
7708;DHT22;3896;48.758;8.888;2022-07-29T00:34:01;21.20;90.60
7708;DHT22;3896;48.758;8.888;2022-07-29T00:36:27;21.20;90.90
7708;DHT22;3896;48.758;8.888;2022-07-29T00:38:53;21.20;91.10
7708;DHT22;3896;48.758;8.888;2022-07-29T00:41:19;21.10;90.90
7708;DHT22;3896;48.758;8.888;2022-07-29T00:43:45;21.10;91.10
7708;DHT22;3896;48.758;8.888;2022-07-29T00:46:11;21.10;91.60
7708;DHT22;3896;48.758;8.888;2022-07-29T00:48:36;21.00;91.50
7708;DHT22;3896;48.758;8.888;2022-07-29T00:51:04;21.00;92.00
7708;DHT22;3896;48.758;8.888;2022-07-29T00:53:30;20.90;92.50
7708;DHT22;3896;48.758;8.888;2022-07-29T00:55:57;20.90;93.10
7708;DHT22;3896;48.758;8.888;2022-07-29T00:58:24;20.90;93.20
7708;DHT22;3896;48.758;8.888;2022-07-29T01:00:49;20.90;93.50
7708;DHT22;3896;48.758;8.888;2022-07-29T01:03:15;20.80;93.70
7708;DHT22;3896;48.758;8.888;2022-07-29T01:05:43;20.80;94.00
7708;DHT22;3896;48.758;8.888;2022-07-29T01:08:11;20.80;94.30
7708;DHT22;3896;48.758;8.888;2022-07-29T01:10:38;20.80;94.70
7708;DHT22;3896;48.758;8.888;2022-07-29T01:13:04;20.80;95.40
7708;DHT22;3896;48.758;8.888;2022-07-29T01:15:30;20.70;95.80
7708;DHT22;3896;48.758;8.888;2022-07-29T01:18:07;20.70;96.00
7708;DHT22;3896;48.758;8.888;2022-07-29T01:21:03;20.70;95.70
7708;DHT22;3896;48.758;8.888;2022-07-29T01:23:48;20.60;94.90
7708;DHT22;3896;48.758;8.888;2022-07-29T01:34:11;20.50;96.40
7708;DHT22;3896;48.758;8.888;2022-07-29T01:36:55;20.50;96.50
7708;DHT22;3896;48.758;8.888;2022-07-29T01:39:31;20.50;96.10
7708;DHT22;3896;48.758;8.888;2022-07-29T01:44:57;20.50;95.80
7708;DHT22;3896;48.758;8.888;2022-07-29T01:47:30;20.40;95.90
7708;DHT22;3896;48.758;8.888;2022-07-29T01:49:58;20.50;96.60
7708;DHT22;3896;48.758;8.888;2022-07-29T01:52:35;20.50;96.90
7708;DHT22;3896;48.758;8.888;2022-07-29T01:55:07;20.40;96.30
7708;DHT22;3896;48.758;8.888;2022-07-29T01:57:35;20.40;96.70
7708;DHT22;3896;48.758;8.888;2022-07-29T02:00:03;20.40;96.70
7708;DHT22;3896;48.758;8.888;2022-07-29T02:02:30;20.50;97.00
7708;DHT22;3896;48.758;8.888;2022-07-29T02:04:57;20.40;97.00
7708;DHT22;3896;48.758;8.888;2022-07-29T02:07:27;20.40;97.20
7708;DHT22;3896;48.758;8.888;2022-07-29T02:09:54;20.40;97.30
7708;DHT22;3896;48.758;8.888;2022-07-29T02:12:22;20.40;97.70
7708;DHT22;3896;48.758;8.888;2022-07-29T02:14:52;20.40;97.70
7708;DHT22;3896;48.758;8.888;2022-07-29T02:17:24;20.40;97.50
7708;DHT22;3896;48.758;8.888;2022-07-29T02:19:54;20.40;97.50
7708;DHT22;3896;48.758;8.888;2022-07-29T02:22:21;20.40;97.80
7708;DHT22;3896;48.758;8.888;2022-07-29T02:24:49;20.40;98.00
7708;DHT22;3896;48.758;8.888;2022-07-29T02:27:17;20.40;98.00
7708;DHT22;3896;48.758;8.888;2022-07-29T02:29:46;20.40;98.40
7708;DHT22;3896;48.758;8.888;2022-07-29T02:32:13;20.40;98.30
7708;DHT22;3896;48.758;8.888;2022-07-29T02:34:40;20.40;98.50
7708;DHT22;3896;48.758;8.888;2022-07-29T02:37:09;20.30;98.40
7708;DHT22;3896;48.758;8.888;2022-07-29T02:39:35;20.30;98.50
7708;DHT22;3896;48.758;8.888;2022-07-29T02:42:05;20.30;98.50
7708;DHT22;3896;48.758;8.888;2022-07-29T02:44:32;20.30;98.50
7708;DHT22;3896;48.758;8.888;2022-07-29T02:49:47;20.20;98.60
7708;DHT22;3896;48.758;8.888;2022-07-29T02:52:27;20.20;98.60
7708;DHT22;3896;48.758;8.888;2022-07-29T02:54:58;20.20;98.40
7708;DHT22;3896;48.758;8.888;2022-07-29T02:57:33;20.20;98.50
7708;DHT22;3896;48.758;8.888;2022-07-29T03:00:05;20.20;98.80
7708;DHT22;3896;48.758;8.888;2022-07-29T03:02:35;20.10;98.80
7708;DHT22;3896;48.758;8.888;2022-07-29T03:05:03;20.10;99.20
7708;DHT22;3896;48.758;8.888;2022-07-29T03:07:29;20.10;99.20
7708;DHT22;3896;48.758;8.888;2022-07-29T03:09:55;20.10;99.20
7708;DHT22;3896;48.758;8.888;2022-07-29T03:12:22;20.10;99.10
7708;DHT22;3896;48.758;8.888;2022-07-29T03:14:48;20.10;99.00
7708;DHT22;3896;48.758;8.888;2022-07-29T03:17:14;20.10;98.80
7708;DHT22;3896;48.758;8.888;2022-07-29T03:19:40;20.10;98.70
7708;DHT22;3896;48.758;8.888;2022-07-29T03:22:06;20.10;98.60
7708;DHT22;3896;48.758;8.888;2022-07-29T03:24:34;20.10;98.80
7708;DHT22;3896;48.758;8.888;2022-07-29T03:27:00;20.10;98.80
7708;DHT22;3896;48.758;8.888;2022-07-29T03:29:26;20.10;98.80
7708;DHT22;3896;48.758;8.888;2022-07-29T03:31:53;20.00;98.60
7708;DHT22;3896;48.758;8.888;2022-07-29T03:34:18;20.00;98.60
7708;DHT22;3896;48.758;8.888;2022-07-29T03:36:44;20.00;98.80
7708;DHT22;3896;48.758;8.888;2022-07-29T03:39:10;19.90;98.70
7708;DHT22;3896;48.758;8.888;2022-07-29T03:41:38;19.90;98.80
7708;DHT22;3896;48.758;8.888;2022-07-29T03:44:07;19.90;99.00
7708;DHT22;3896;48.758;8.888;2022-07-29T03:46:35;19.90;99.00
7708;DHT22;3896;48.758;8.888;2022-07-29T03:49:04;19.90;99.10
7708;DHT22;3896;48.758;8.888;2022-07-29T03:51:30;19.80;98.70
7708;DHT22;3896;48.758;8.888;2022-07-29T03:53:56;19.80;98.50
7708;DHT22;3896;48.758;8.888;2022-07-29T03:56:23;19.80;98.40
7708;DHT22;3896;48.758;8.888;2022-07-29T03:58:50;19.80;98.40
7708;DHT22;3896;48.758;8.888;2022-07-29T04:01:17;19.70;98.20
7708;DHT22;3896;48.758;8.888;2022-07-29T04:03:44;19.70;98.40
7708;DHT22;3896;48.758;8.888;2022-07-29T04:06:12;19.70;98.80
7708;DHT22;3896;48.758;8.888;2022-07-29T04:08:38;19.70;99.00
7708;DHT22;3896;48.758;8.888;2022-07-29T04:11:05;19.60;99.20
7708;DHT22;3896;48.758;8.888;2022-07-29T04:13:31;19.60;99.50
7708;DHT22;3896;48.758;8.888;2022-07-29T04:15:57;19.60;99.80
7708;DHT22;3896;48.758;8.888;2022-07-29T04:18:23;19.50;99.90
7708;DHT22;3896;48.758;8.888;2022-07-29T04:20:49;19.50;99.90
7708;DHT22;3896;48.758;8.888;2022-07-29T04:23:14;19.50;99.90
7708;DHT22;3896;48.758;8.888;2022-07-29T04:25:41;19.50;99.90
7708;DHT22;3896;48.758;8.888;2022-07-29T04:28:08;19.50;99.90
7708;DHT22;3896;48.758;8.888;2022-07-29T04:30:34;19.50;99.90
7708;DHT22;3896;48.758;8.888;2022-07-29T04:33:02;19.50;99.90
7708;DHT22;3896;48.758;8.888;2022-07-29T04:35:29;19.40;99.90
7708;DHT22;3896;48.758;8.888;2022-07-29T04:37:55;19.40;99.90
7708;DHT22;3896;48.758;8.888;2022-07-29T04:40:20;19.40;99.90
7708;DHT22;3896;48.758;8.888;2022-07-29T04:42:46;19.40;99.90
7708;DHT22;3896;48.758;8.888;2022-07-29T04:45:12;19.40;99.90
7708;DHT22;3896;48.758;8.888;2022-07-29T04:47:37;19.40;99.90
7708;DHT22;3896;48.758;8.888;2022-07-29T04:50:03;19.40;99.90
7708;DHT22;3896;48.758;8.888;2022-07-29T04:52:30;19.40;99.90
7708;DHT22;3896;48.758;8.888;2022-07-29T04:54:56;19.40;99.90
7708;DHT22;3896;48.758;8.888;2022-07-29T04:57:21;19.40;99.90
7708;DHT22;3896;48.758;8.888;2022-07-29T04:59:47;19.40;99.90
7708;DHT22;3896;48.758;8.888;2022-07-29T05:02:12;19.40;99.90
7708;DHT22;3896;48.758;8.888;2022-07-29T05:04:38;19.40;99.90
7708;DHT22;3896;48.758;8.888;2022-07-29T05:07:03;19.50;99.90
7708;DHT22;3896;48.758;8.888;2022-07-29T05:09:29;19.50;99.90
7708;DHT22;3896;48.758;8.888;2022-07-29T05:11:55;19.50;99.90
7708;DHT22;3896;48.758;8.888;2022-07-29T05:14:21;19.50;99.90
7708;DHT22;3896;48.758;8.888;2022-07-29T05:16:46;19.50;99.90
7708;DHT22;3896;48.758;8.888;2022-07-29T05:19:12;19.60;99.90
7708;DHT22;3896;48.758;8.888;2022-07-29T05:21:37;19.60;99.90
7708;DHT22;3896;48.758;8.888;2022-07-29T05:24:03;19.60;99.90
7708;DHT22;3896;48.758;8.888;2022-07-29T05:26:29;19.60;99.90
7708;DHT22;3896;48.758;8.888;2022-07-29T05:28:55;19.60;99.90
7708;DHT22;3896;48.758;8.888;2022-07-29T05:31:20;19.70;99.90
7708;DHT22;3896;48.758;8.888;2022-07-29T05:33:46;19.70;99.90
7708;DHT22;3896;48.758;8.888;2022-07-29T05:36:12;19.70;99.90
7708;DHT22;3896;48.758;8.888;2022-07-29T05:38:37;19.80;99.90
7708;DHT22;3896;48.758;8.888;2022-07-29T05:41:04;19.80;99.90
7708;DHT22;3896;48.758;8.888;2022-07-29T05:43:29;19.80;99.90
7708;DHT22;3896;48.758;8.888;2022-07-29T05:45:56;19.80;99.90
7708;DHT22;3896;48.758;8.888;2022-07-29T05:48:22;19.90;99.90
7708;DHT22;3896;48.758;8.888;2022-07-29T05:50:48;19.90;99.90
7708;DHT22;3896;48.758;8.888;2022-07-29T05:53:13;20.00;99.90
7708;DHT22;3896;48.758;8.888;2022-07-29T05:55:39;20.00;99.90
7708;DHT22;3896;48.758;8.888;2022-07-29T05:58:05;20.00;99.90
7708;DHT22;3896;48.758;8.888;2022-07-29T06:00:30;20.10;99.90
7708;DHT22;3896;48.758;8.888;2022-07-29T06:02:56;20.10;99.90
7708;DHT22;3896;48.758;8.888;2022-07-29T06:05:22;20.20;99.90
7708;DHT22;3896;48.758;8.888;2022-07-29T06:07:48;20.30;99.90
7708;DHT22;3896;48.758;8.888;2022-07-29T06:10:13;20.30;99.90
7708;DHT22;3896;48.758;8.888;2022-07-29T06:12:39;20.40;99.90
7708;DHT22;3896;48.758;8.888;2022-07-29T06:15:05;20.40;99.90
7708;DHT22;3896;48.758;8.888;2022-07-29T06:17:31;20.50;99.90
7708;DHT22;3896;48.758;8.888;2022-07-29T06:19:57;20.60;99.90
7708;DHT22;3896;48.758;8.888;2022-07-29T06:22:22;20.60;99.90
7708;DHT22;3896;48.758;8.888;2022-07-29T06:24:49;20.70;99.90
7708;DHT22;3896;48.758;8.888;2022-07-29T06:27:15;20.70;99.90
7708;DHT22;3896;48.758;8.888;2022-07-29T06:29:41;20.80;99.90
7708;DHT22;3896;48.758;8.888;2022-07-29T06:32:07;20.90;99.90
7708;DHT22;3896;48.758;8.888;2022-07-29T06:34:35;20.90;99.90
7708;DHT22;3896;48.758;8.888;2022-07-29T06:37:00;21.00;99.90
7708;DHT22;3896;48.758;8.888;2022-07-29T06:39:30;21.00;99.90
7708;DHT22;3896;48.758;8.888;2022-07-29T06:41:56;21.10;99.90
7708;DHT22;3896;48.758;8.888;2022-07-29T06:44:21;21.10;99.90
7708;DHT22;3896;48.758;8.888;2022-07-29T06:46:47;21.20;99.90
7708;DHT22;3896;48.758;8.888;2022-07-29T06:49:15;21.20;99.90
7708;DHT22;3896;48.758;8.888;2022-07-29T06:51:41;21.30;99.90
7708;DHT22;3896;48.758;8.888;2022-07-29T06:54:06;21.40;99.90
7708;DHT22;3896;48.758;8.888;2022-07-29T06:56:34;21.50;99.90
7708;DHT22;3896;48.758;8.888;2022-07-29T06:59:02;21.50;99.90
7708;DHT22;3896;48.758;8.888;2022-07-29T07:01:28;21.60;99.90
7708;DHT22;3896;48.758;8.888;2022-07-29T07:03:53;21.70;99.90
7708;DHT22;3896;48.758;8.888;2022-07-29T07:06:19;21.70;99.90
7708;DHT22;3896;48.758;8.888;2022-07-29T07:08:44;21.80;99.90
7708;DHT22;3896;48.758;8.888;2022-07-29T07:11:11;21.90;99.90
7708;DHT22;3896;48.758;8.888;2022-07-29T07:13:37;22.00;99.90
7708;DHT22;3896;48.758;8.888;2022-07-29T07:16:03;22.00;99.90
7708;DHT22;3896;48.758;8.888;2022-07-29T07:18:29;22.10;99.60
7708;DHT22;3896;48.758;8.888;2022-07-29T07:20:56;22.20;98.80
7708;DHT22;3896;48.758;8.888;2022-07-29T07:23:21;22.30;98.50
7708;DHT22;3896;48.758;8.888;2022-07-29T07:25:47;22.40;98.10
7708;DHT22;3896;48.758;8.888;2022-07-29T07:28:13;22.40;98.00
7708;DHT22;3896;48.758;8.888;2022-07-29T07:30:39;22.50;97.20
7708;DHT22;3896;48.758;8.888;2022-07-29T07:33:04;22.60;96.80
7708;DHT22;3896;48.758;8.888;2022-07-29T07:35:30;22.60;96.40
7708;DHT22;3896;48.758;8.888;2022-07-29T07:37:56;22.80;95.70
7708;DHT22;3896;48.758;8.888;2022-07-29T07:40:22;22.90;95.50
7708;DHT22;3896;48.758;8.888;2022-07-29T07:42:48;22.90;94.30
7708;DHT22;3896;48.758;8.888;2022-07-29T07:45:13;23.00;94.60
7708;DHT22;3896;48.758;8.888;2022-07-29T07:47:39;23.10;92.10
7708;DHT22;3896;48.758;8.888;2022-07-29T07:50:06;23.30;88.80
7708;DHT22;3896;48.758;8.888;2022-07-29T07:52:32;23.40;85.80
7708;DHT22;3896;48.758;8.888;2022-07-29T07:54:59;23.50;86.20
7708;DHT22;3896;48.758;8.888;2022-07-29T07:57:24;23.60;85.30
7708;DHT22;3896;48.758;8.888;2022-07-29T07:59:50;23.60;84.80
7708;DHT22;3896;48.758;8.888;2022-07-29T08:02:16;23.70;84.20
7708;DHT22;3896;48.758;8.888;2022-07-29T08:04:41;23.80;83.20
7708;DHT22;3896;48.758;8.888;2022-07-29T08:07:07;23.90;82.00
7708;DHT22;3896;48.758;8.888;2022-07-29T08:09:34;24.00;80.90
7708;DHT22;3896;48.758;8.888;2022-07-29T08:12:00;24.10;80.80
7708;DHT22;3896;48.758;8.888;2022-07-29T08:14:29;24.20;80.50
7708;DHT22;3896;48.758;8.888;2022-07-29T08:16:55;24.30;80.60
7708;DHT22;3896;48.758;8.888;2022-07-29T08:19:23;24.40;79.60
7708;DHT22;3896;48.758;8.888;2022-07-29T08:21:49;24.50;77.70
7708;DHT22;3896;48.758;8.888;2022-07-29T08:24:15;24.60;77.20
7708;DHT22;3896;48.758;8.888;2022-07-29T08:26:59;24.70;76.70
7708;DHT22;3896;48.758;8.888;2022-07-29T08:29:25;24.80;75.10
7708;DHT22;3896;48.758;8.888;2022-07-29T08:31:50;25.00;74.10
7708;DHT22;3896;48.758;8.888;2022-07-29T08:34:16;25.10;74.00
7708;DHT22;3896;48.758;8.888;2022-07-29T08:36:41;25.20;72.80
7708;DHT22;3896;48.758;8.888;2022-07-29T08:39:07;25.30;73.50
7708;DHT22;3896;48.758;8.888;2022-07-29T08:41:33;25.40;72.50
7708;DHT22;3896;48.758;8.888;2022-07-29T08:43:58;25.50;71.10
7708;DHT22;3896;48.758;8.888;2022-07-29T08:46:24;25.60;70.50
7708;DHT22;3896;48.758;8.888;2022-07-29T08:48:50;25.60;70.40
7708;DHT22;3896;48.758;8.888;2022-07-29T08:51:17;25.70;69.30
7708;DHT22;3896;48.758;8.888;2022-07-29T08:53:44;25.90;68.90
7708;DHT22;3896;48.758;8.888;2022-07-29T08:56:15;26.00;68.60
7708;DHT22;3896;48.758;8.888;2022-07-29T08:58:46;26.10;66.30
7708;DHT22;3896;48.758;8.888;2022-07-29T09:01:17;26.30;65.60
7708;DHT22;3896;48.758;8.888;2022-07-29T09:03:46;26.40;65.70
7708;DHT22;3896;48.758;8.888;2022-07-29T09:06:17;26.60;65.90
7708;DHT22;3896;48.758;8.888;2022-07-29T09:08:44;26.70;65.20
7708;DHT22;3896;48.758;8.888;2022-07-29T09:11:09;26.90;63.70
7708;DHT22;3896;48.758;8.888;2022-07-29T09:13:36;27.00;63.00
7708;DHT22;3896;48.758;8.888;2022-07-29T09:16:03;27.10;62.20
7708;DHT22;3896;48.758;8.888;2022-07-29T09:18:43;27.20;61.90
7708;DHT22;3896;48.758;8.888;2022-07-29T09:21:12;27.30;61.00
7708;DHT22;3896;48.758;8.888;2022-07-29T09:24:11;27.40;60.30
7708;DHT22;3896;48.758;8.888;2022-07-29T09:26:42;27.50;59.70
7708;DHT22;3896;48.758;8.888;2022-07-29T09:29:12;27.70;59.60
7708;DHT22;3896;48.758;8.888;2022-07-29T09:31:44;27.80;59.30
7708;DHT22;3896;48.758;8.888;2022-07-29T09:34:12;27.90;58.40
7708;DHT22;3896;48.758;8.888;2022-07-29T09:36:43;28.00;58.20
7708;DHT22;3896;48.758;8.888;2022-07-29T09:39:09;28.10;57.80
7708;DHT22;3896;48.758;8.888;2022-07-29T09:41:50;28.20;57.40
7708;DHT22;3896;48.758;8.888;2022-07-29T09:44:18;28.20;57.10
7708;DHT22;3896;48.758;8.888;2022-07-29T09:47:00;28.30;56.50
7708;DHT22;3896;48.758;8.888;2022-07-29T09:49:49;28.30;56.60
7708;DHT22;3896;48.758;8.888;2022-07-29T09:52:16;28.40;56.30
7708;DHT22;3896;48.758;8.888;2022-07-29T09:54:42;28.40;56.00
7708;DHT22;3896;48.758;8.888;2022-07-29T09:57:09;28.40;55.50
7708;DHT22;3896;48.758;8.888;2022-07-29T10:00:08;28.40;55.50
7708;DHT22;3896;48.758;8.888;2022-07-29T10:02:37;28.30;55.90
7708;DHT22;3896;48.758;8.888;2022-07-29T10:05:15;28.20;54.60
7708;DHT22;3896;48.758;8.888;2022-07-29T10:10:10;28.10;54.10
7708;DHT22;3896;48.758;8.888;2022-07-29T10:12:49;28.10;54.40
7708;DHT22;3896;48.758;8.888;2022-07-29T10:15:15;28.00;55.30
7708;DHT22;3896;48.758;8.888;2022-07-29T10:17:41;28.00;55.50
7708;DHT22;3896;48.758;8.888;2022-07-29T10:20:08;28.00;57.50
7708;DHT22;3896;48.758;8.888;2022-07-29T10:22:34;28.00;58.60
7708;DHT22;3896;48.758;8.888;2022-07-29T10:24:59;27.90;59.40
7708;DHT22;3896;48.758;8.888;2022-07-29T10:27:25;27.80;61.60
7708;DHT22;3896;48.758;8.888;2022-07-29T10:29:51;27.70;62.30
7708;DHT22;3896;48.758;8.888;2022-07-29T10:43:52;26.80;72.10
7708;DHT22;3896;48.758;8.888;2022-07-29T10:46:18;26.60;74.00
7708;DHT22;3896;48.758;8.888;2022-07-29T10:49:16;26.50;74.50
7708;DHT22;3896;48.758;8.888;2022-07-29T10:51:56;26.30;74.20
7708;DHT22;3896;48.758;8.888;2022-07-29T11:00:35;25.90;79.80
7708;DHT22;3896;48.758;8.888;2022-07-29T11:05:09;25.60;84.40
7708;DHT22;3896;48.758;8.888;2022-07-29T11:07:36;25.50;86.40
7708;DHT22;3896;48.758;8.888;2022-07-29T11:10:23;25.50;90.90
7708;DHT22;3896;48.758;8.888;2022-07-29T11:12:49;25.40;91.10
7708;DHT22;3896;48.758;8.888;2022-07-29T11:15:19;25.50;90.30
7708;DHT22;3896;48.758;8.888;2022-07-29T11:23:20;25.40;86.70
7708;DHT22;3896;48.758;8.888;2022-07-29T11:31:40;25.40;88.50
7708;DHT22;3896;48.758;8.888;2022-07-29T11:34:31;25.40;86.90
7708;DHT22;3896;48.758;8.888;2022-07-29T11:39:47;25.40;87.70
7708;DHT22;3896;48.758;8.888;2022-07-29T11:47:22;25.40;90.00
7708;DHT22;3896;48.758;8.888;2022-07-29T11:49:48;25.50;91.30
7708;DHT22;3896;48.758;8.888;2022-07-29T11:52:15;25.50;92.20
7708;DHT22;3896;48.758;8.888;2022-07-29T11:54:42;25.50;91.10
7708;DHT22;3896;48.758;8.888;2022-07-29T11:57:11;25.60;91.70
7708;DHT22;3896;48.758;8.888;2022-07-29T11:59:42;25.60;91.20
7708;DHT22;3896;48.758;8.888;2022-07-29T12:02:08;25.60;91.00
7708;DHT22;3896;48.758;8.888;2022-07-29T12:04:51;25.70;91.70
7708;DHT22;3896;48.758;8.888;2022-07-29T12:07:17;25.70;92.20
7708;DHT22;3896;48.758;8.888;2022-07-29T12:09:53;25.70;92.80
7708;DHT22;3896;48.758;8.888;2022-07-29T12:12:19;25.70;93.20
7708;DHT22;3896;48.758;8.888;2022-07-29T12:14:45;25.80;94.40
7708;DHT22;3896;48.758;8.888;2022-07-29T12:17:31;25.80;93.70
7708;DHT22;3896;48.758;8.888;2022-07-29T12:19:58;25.80;93.00
7708;DHT22;3896;48.758;8.888;2022-07-29T12:22:26;25.90;92.60
7708;DHT22;3896;48.758;8.888;2022-07-29T12:24:53;25.90;91.20
7708;DHT22;3896;48.758;8.888;2022-07-29T12:27:19;25.90;90.60
7708;DHT22;3896;48.758;8.888;2022-07-29T12:29:55;25.90;90.60
7708;DHT22;3896;48.758;8.888;2022-07-29T12:32:21;25.90;89.70
7708;DHT22;3896;48.758;8.888;2022-07-29T12:34:47;25.90;90.40
7708;DHT22;3896;48.758;8.888;2022-07-29T12:37:13;25.90;89.00
7708;DHT22;3896;48.758;8.888;2022-07-29T12:39:39;25.90;87.60
7708;DHT22;3896;48.758;8.888;2022-07-29T12:42:14;25.90;86.90
7708;DHT22;3896;48.758;8.888;2022-07-29T12:44:49;25.90;86.70
7708;DHT22;3896;48.758;8.888;2022-07-29T12:47:15;25.90;88.80
7708;DHT22;3896;48.758;8.888;2022-07-29T12:49:43;25.90;87.60
7708;DHT22;3896;48.758;8.888;2022-07-29T12:52:28;25.90;84.10
7708;DHT22;3896;48.758;8.888;2022-07-29T12:54:54;25.80;84.80
7708;DHT22;3896;48.758;8.888;2022-07-29T12:57:20;25.80;85.20
7708;DHT22;3896;48.758;8.888;2022-07-29T13:00:06;25.80;86.30
7708;DHT22;3896;48.758;8.888;2022-07-29T13:02:34;25.70;85.20
7708;DHT22;3896;48.758;8.888;2022-07-29T13:05:00;25.70;85.00
7708;DHT22;3896;48.758;8.888;2022-07-29T13:07:28;25.70;85.80
7708;DHT22;3896;48.758;8.888;2022-07-29T13:10:19;25.70;85.80
7708;DHT22;3896;48.758;8.888;2022-07-29T13:15:34;25.60;84.40
7708;DHT22;3896;48.758;8.888;2022-07-29T13:18:04;25.60;86.10
7708;DHT22;3896;48.758;8.888;2022-07-29T13:20:30;25.50;84.90
7708;DHT22;3896;48.758;8.888;2022-07-29T13:22:58;25.60;83.80
7708;DHT22;3896;48.758;8.888;2022-07-29T13:25:31;25.50;83.40
7708;DHT22;3896;48.758;8.888;2022-07-29T13:27:58;25.50;83.90
7708;DHT22;3896;48.758;8.888;2022-07-29T13:30:24;25.60;83.90
7708;DHT22;3896;48.758;8.888;2022-07-29T13:32:52;25.60;84.10
7708;DHT22;3896;48.758;8.888;2022-07-29T13:35:18;25.70;84.80
7708;DHT22;3896;48.758;8.888;2022-07-29T13:37:44;25.70;82.90
7708;DHT22;3896;48.758;8.888;2022-07-29T13:40:11;25.90;81.50
7708;DHT22;3896;48.758;8.888;2022-07-29T13:42:37;26.00;80.50
7708;DHT22;3896;48.758;8.888;2022-07-29T13:45:03;26.00;79.10
7708;DHT22;3896;48.758;8.888;2022-07-29T13:47:30;26.10;79.90
7708;DHT22;3896;48.758;8.888;2022-07-29T13:49:55;26.20;79.20
7708;DHT22;3896;48.758;8.888;2022-07-29T13:52:21;26.30;78.90
7708;DHT22;3896;48.758;8.888;2022-07-29T13:54:47;26.30;77.80
7708;DHT22;3896;48.758;8.888;2022-07-29T13:57:13;26.30;76.50
7708;DHT22;3896;48.758;8.888;2022-07-29T13:59:42;26.40;75.20
7708;DHT22;3896;48.758;8.888;2022-07-29T14:02:10;26.40;75.30
7708;DHT22;3896;48.758;8.888;2022-07-29T14:04:36;26.40;75.00
7708;DHT22;3896;48.758;8.888;2022-07-29T14:07:02;26.40;74.90
7708;DHT22;3896;48.758;8.888;2022-07-29T14:09:27;26.50;77.50
7708;DHT22;3896;48.758;8.888;2022-07-29T14:11:53;26.50;76.70
7708;DHT22;3896;48.758;8.888;2022-07-29T14:14:19;26.60;75.10
7708;DHT22;3896;48.758;8.888;2022-07-29T14:16:45;26.60;74.90
7708;DHT22;3896;48.758;8.888;2022-07-29T14:19:11;26.70;74.40
7708;DHT22;3896;48.758;8.888;2022-07-29T14:21:37;26.70;72.00
7708;DHT22;3896;48.758;8.888;2022-07-29T14:24:03;26.70;70.60
7708;DHT22;3896;48.758;8.888;2022-07-29T14:26:29;26.70;70.00
7708;DHT22;3896;48.758;8.888;2022-07-29T14:28:55;26.80;69.80
7708;DHT22;3896;48.758;8.888;2022-07-29T14:31:20;26.80;69.40
7708;DHT22;3896;48.758;8.888;2022-07-29T14:33:46;26.90;68.70
7708;DHT22;3896;48.758;8.888;2022-07-29T14:36:12;26.90;68.20
7708;DHT22;3896;48.758;8.888;2022-07-29T14:38:43;27.00;68.10
7708;DHT22;3896;48.758;8.888;2022-07-29T14:41:12;27.00;69.00
7708;DHT22;3896;48.758;8.888;2022-07-29T14:43:38;27.10;68.80
7708;DHT22;3896;48.758;8.888;2022-07-29T14:46:04;27.10;69.30
7708;DHT22;3896;48.758;8.888;2022-07-29T14:48:29;27.20;68.90
7708;DHT22;3896;48.758;8.888;2022-07-29T14:50:55;27.20;68.70
7708;DHT22;3896;48.758;8.888;2022-07-29T14:53:21;27.30;69.00
7708;DHT22;3896;48.758;8.888;2022-07-29T14:55:47;27.30;68.80
7708;DHT22;3896;48.758;8.888;2022-07-29T14:58:13;27.30;69.90
7708;DHT22;3896;48.758;8.888;2022-07-29T15:00:39;27.40;69.50
7708;DHT22;3896;48.758;8.888;2022-07-29T15:03:04;27.50;69.50
7708;DHT22;3896;48.758;8.888;2022-07-29T15:05:31;27.50;70.60
7708;DHT22;3896;48.758;8.888;2022-07-29T15:07:58;27.60;70.80
7708;DHT22;3896;48.758;8.888;2022-07-29T15:10:24;27.60;70.00
7708;DHT22;3896;48.758;8.888;2022-07-29T15:12:52;27.60;69.50
7708;DHT22;3896;48.758;8.888;2022-07-29T15:15:18;27.70;69.10
7708;DHT22;3896;48.758;8.888;2022-07-29T15:17:43;27.70;68.00
7708;DHT22;3896;48.758;8.888;2022-07-29T15:20:10;27.70;67.50
7708;DHT22;3896;48.758;8.888;2022-07-29T15:22:37;27.70;67.10
7708;DHT22;3896;48.758;8.888;2022-07-29T15:25:04;27.70;67.40
7708;DHT22;3896;48.758;8.888;2022-07-29T15:27:29;27.70;67.50
7708;DHT22;3896;48.758;8.888;2022-07-29T15:29:56;27.70;67.50
7708;DHT22;3896;48.758;8.888;2022-07-29T15:32:21;27.70;67.30
7708;DHT22;3896;48.758;8.888;2022-07-29T15:34:47;27.70;66.90
7708;DHT22;3896;48.758;8.888;2022-07-29T15:37:12;27.70;66.60
7708;DHT22;3896;48.758;8.888;2022-07-29T15:39:38;27.70;66.60
7708;DHT22;3896;48.758;8.888;2022-07-29T15:42:04;27.70;68.00
7708;DHT22;3896;48.758;8.888;2022-07-29T15:44:29;27.70;68.60
7708;DHT22;3896;48.758;8.888;2022-07-29T15:46:55;27.70;67.90
7708;DHT22;3896;48.758;8.888;2022-07-29T15:49:34;27.70;67.60
7708;DHT22;3896;48.758;8.888;2022-07-29T15:52:02;27.70;68.80
7708;DHT22;3896;48.758;8.888;2022-07-29T15:54:28;27.70;64.70
7708;DHT22;3896;48.758;8.888;2022-07-29T15:56:55;27.70;63.90
7708;DHT22;3896;48.758;8.888;2022-07-29T15:59:21;27.70;64.40
7708;DHT22;3896;48.758;8.888;2022-07-29T16:01:47;27.60;64.90
7708;DHT22;3896;48.758;8.888;2022-07-29T16:04:15;27.60;64.80
7708;DHT22;3896;48.758;8.888;2022-07-29T16:06:40;27.60;64.30
7708;DHT22;3896;48.758;8.888;2022-07-29T16:09:06;27.60;63.80
7708;DHT22;3896;48.758;8.888;2022-07-29T16:11:32;27.60;64.10
7708;DHT22;3896;48.758;8.888;2022-07-29T16:13:58;27.60;63.90
7708;DHT22;3896;48.758;8.888;2022-07-29T16:16:24;27.60;63.60
7708;DHT22;3896;48.758;8.888;2022-07-29T16:18:49;27.60;63.70
7708;DHT22;3896;48.758;8.888;2022-07-29T16:21:15;27.50;64.50
7708;DHT22;3896;48.758;8.888;2022-07-29T16:23:41;27.60;66.20
7708;DHT22;3896;48.758;8.888;2022-07-29T16:26:07;27.60;67.50
7708;DHT22;3896;48.758;8.888;2022-07-29T16:28:32;27.60;68.00
7708;DHT22;3896;48.758;8.888;2022-07-29T16:30:58;27.60;69.10
7708;DHT22;3896;48.758;8.888;2022-07-29T16:33:24;27.60;70.00
7708;DHT22;3896;48.758;8.888;2022-07-29T16:35:50;27.60;69.00
7708;DHT22;3896;48.758;8.888;2022-07-29T16:38:16;27.70;69.70
7708;DHT22;3896;48.758;8.888;2022-07-29T16:40:42;27.70;68.30
7708;DHT22;3896;48.758;8.888;2022-07-29T16:43:08;27.70;67.60
7708;DHT22;3896;48.758;8.888;2022-07-29T16:45:34;27.70;67.90
7708;DHT22;3896;48.758;8.888;2022-07-29T16:48:00;27.70;67.90
7708;DHT22;3896;48.758;8.888;2022-07-29T16:50:27;27.70;68.20
7708;DHT22;3896;48.758;8.888;2022-07-29T16:52:53;27.70;68.40
7708;DHT22;3896;48.758;8.888;2022-07-29T16:55:19;27.70;68.10
7708;DHT22;3896;48.758;8.888;2022-07-29T16:57:45;27.70;63.30
7708;DHT22;3896;48.758;8.888;2022-07-29T17:02:44;27.70;59.80
7708;DHT22;3896;48.758;8.888;2022-07-29T17:05:10;27.70;58.80